sensor_id;sensor_type;location;lat;lon;timestamp;P1;durP1;ratioP1;P2;durP2;ratioP2
41709;SDS011;59402;48.396;-4.472;2022-11-10T00:03:01;18.60;;;2.42;;
41709;SDS011;59402;48.396;-4.472;2022-11-10T00:06:38;18.38;;;2.10;;
41709;SDS011;59402;48.396;-4.472;2022-11-10T00:13:51;20.40;;;2.92;;
41709;SDS011;59402;48.396;-4.472;2022-11-10T00:17:46;11.70;;;1.98;;
41709;SDS011;59402;48.396;-4.472;2022-11-10T00:24:59;11.63;;;2.08;;
41709;SDS011;59402;48.396;-4.472;2022-11-10T00:28:35;20.45;;;2.20;;
41709;SDS011;59402;48.396;-4.472;2022-11-10T00:32:12;21.30;;;1.88;;
41709;SDS011;59402;48.396;-4.472;2022-11-10T00:35:48;15.48;;;2.03;;
41709;SDS011;59402;48.396;-4.472;2022-11-10T00:39:25;20.08;;;2.50;;
41709;SDS011;59402;48.396;-4.472;2022-11-10T00:43:02;21.20;;;2.95;;
41709;SDS011;59402;48.396;-4.472;2022-11-10T00:46:39;17.58;;;2.47;;
41709;SDS011;59402;48.396;-4.472;2022-11-10T00:53:57;19.67;;;2.38;;
41709;SDS011;59402;48.396;-4.472;2022-11-10T00:57:33;17.45;;;2.20;;
41709;SDS011;59402;48.396;-4.472;2022-11-10T01:01:09;10.77;;;2.20;;
41709;SDS011;59402;48.396;-4.472;2022-11-10T01:04:46;19.10;;;2.30;;
41709;SDS011;59402;48.396;-4.472;2022-11-10T01:08:23;18.42;;;2.47;;
41709;SDS011;59402;48.396;-4.472;2022-11-10T01:11:59;18.55;;;2.72;;
41709;SDS011;59402;48.396;-4.472;2022-11-10T01:15:39;19.58;;;2.53;;
41709;SDS011;59402;48.396;-4.472;2022-11-10T01:19:16;17.33;;;2.30;;
41709;SDS011;59402;48.396;-4.472;2022-11-10T01:22:53;20.33;;;2.60;;
41709;SDS011;59402;48.396;-4.472;2022-11-10T01:30:06;14.45;;;2.05;;
41709;SDS011;59402;48.396;-4.472;2022-11-10T01:33:44;17.42;;;2.08;;
41709;SDS011;59402;48.396;-4.472;2022-11-10T01:37:21;16.48;;;1.85;;
41709;SDS011;59402;48.396;-4.472;2022-11-10T01:40:58;19.33;;;2.35;;
41709;SDS011;59402;48.396;-4.472;2022-11-10T01:44:35;21.73;;;2.58;;
41709;SDS011;59402;48.396;-4.472;2022-11-10T01:48:28;21.17;;;2.00;;
41709;SDS011;59402;48.396;-4.472;2022-11-10T01:52:09;15.85;;;2.28;;
41709;SDS011;59402;48.396;-4.472;2022-11-10T01:55:49;20.98;;;2.25;;
41709;SDS011;59402;48.396;-4.472;2022-11-10T01:59:29;14.60;;;1.95;;
41709;SDS011;59402;48.396;-4.472;2022-11-10T02:03:15;15.65;;;1.90;;
41709;SDS011;59402;48.396;-4.472;2022-11-10T02:06:55;22.02;;;2.05;;
41709;SDS011;59402;48.396;-4.472;2022-11-10T02:10:33;22.20;;;2.60;;
41709;SDS011;59402;48.396;-4.472;2022-11-10T02:14:11;19.95;;;2.97;;
41709;SDS011;59402;48.396;-4.472;2022-11-10T02:17:49;19.33;;;2.75;;
41709;SDS011;59402;48.396;-4.472;2022-11-10T02:21:25;17.83;;;2.15;;
41709;SDS011;59402;48.396;-4.472;2022-11-10T02:28:39;20.10;;;2.72;;
41709;SDS011;59402;48.396;-4.472;2022-11-10T02:32:16;20.33;;;2.60;;
41709;SDS011;59402;48.396;-4.472;2022-11-10T02:35:52;19.50;;;2.25;;
41709;SDS011;59402;48.396;-4.472;2022-11-10T02:39:29;19.02;;;2.28;;
41709;SDS011;59402;48.396;-4.472;2022-11-10T02:43:06;17.17;;;2.55;;
41709;SDS011;59402;48.396;-4.472;2022-11-10T02:46:45;16.30;;;1.85;;
41709;SDS011;59402;48.396;-4.472;2022-11-10T02:53:58;22.85;;;2.20;;
41709;SDS011;59402;48.396;-4.472;2022-11-10T02:57:34;19.55;;;2.22;;
41709;SDS011;59402;48.396;-4.472;2022-11-10T03:01:11;22.33;;;2.45;;
41709;SDS011;59402;48.396;-4.472;2022-11-10T03:04:47;18.60;;;2.03;;
41709;SDS011;59402;48.396;-4.472;2022-11-10T03:08:23;15.77;;;1.77;;
41709;SDS011;59402;48.396;-4.472;2022-11-10T03:12:00;20.35;;;2.75;;
41709;SDS011;59402;48.396;-4.472;2022-11-10T03:15:40;23.23;;;2.28;;
41709;SDS011;59402;48.396;-4.472;2022-11-10T03:19:16;25.27;;;2.85;;
41709;SDS011;59402;48.396;-4.472;2022-11-10T03:22:58;19.35;;;2.22;;
41709;SDS011;59402;48.396;-4.472;2022-11-10T03:26:35;25.25;;;2.90;;
41709;SDS011;59402;48.396;-4.472;2022-11-10T03:30:11;18.08;;;2.22;;
41709;SDS011;59402;48.396;-4.472;2022-11-10T03:33:48;21.42;;;2.83;;
41709;SDS011;59402;48.396;-4.472;2022-11-10T03:37:24;20.73;;;2.65;;
41709;SDS011;59402;48.396;-4.472;2022-11-10T03:41:01;18.65;;;2.58;;
41709;SDS011;59402;48.396;-4.472;2022-11-10T03:44:37;29.05;;;2.92;;
41709;SDS011;59402;48.396;-4.472;2022-11-10T03:51:50;18.65;;;2.85;;
41709;SDS011;59402;48.396;-4.472;2022-11-10T03:55:27;20.15;;;2.58;;
41709;SDS011;59402;48.396;-4.472;2022-11-10T03:59:03;28.15;;;3.40;;
41709;SDS011;59402;48.396;-4.472;2022-11-10T04:02:40;27.80;;;3.30;;
41709;SDS011;59402;48.396;-4.472;2022-11-10T04:06:17;27.83;;;2.63;;
41709;SDS011;59402;48.396;-4.472;2022-11-10T04:10:15;25.63;;;3.75;;
41709;SDS011;59402;48.396;-4.472;2022-11-10T04:13:51;28.27;;;3.35;;
41709;SDS011;59402;48.396;-4.472;2022-11-10T04:17:51;31.50;;;4.07;;
41709;SDS011;59402;48.396;-4.472;2022-11-10T04:25:24;33.75;;;3.67;;
41709;SDS011;59402;48.396;-4.472;2022-11-10T04:29:13;31.27;;;3.97;;
41709;SDS011;59402;48.396;-4.472;2022-11-10T04:32:52;29.20;;;2.83;;
41709;SDS011;59402;48.396;-4.472;2022-11-10T04:36:30;28.02;;;2.95;;
41709;SDS011;59402;48.396;-4.472;2022-11-10T04:40:07;28.63;;;3.95;;
41709;SDS011;59402;48.396;-4.472;2022-11-10T04:43:44;30.17;;;3.22;;
41709;SDS011;59402;48.396;-4.472;2022-11-10T04:47:21;26.63;;;3.33;;
41709;SDS011;59402;48.396;-4.472;2022-11-10T04:51:01;26.88;;;3.63;;
41709;SDS011;59402;48.396;-4.472;2022-11-10T04:54:38;26.90;;;3.10;;
41709;SDS011;59402;48.396;-4.472;2022-11-10T04:58:14;22.15;;;3.05;;
41709;SDS011;59402;48.396;-4.472;2022-11-10T05:01:51;30.48;;;3.83;;
41709;SDS011;59402;48.396;-4.472;2022-11-10T05:05:28;31.08;;;3.50;;
41709;SDS011;59402;48.396;-4.472;2022-11-10T05:09:04;28.88;;;3.42;;
41709;SDS011;59402;48.396;-4.472;2022-11-10T05:19:54;21.30;;;3.40;;
41709;SDS011;59402;48.396;-4.472;2022-11-10T05:23:31;26.05;;;3.60;;
41709;SDS011;59402;48.396;-4.472;2022-11-10T05:27:07;28.45;;;3.13;;
41709;SDS011;59402;48.396;-4.472;2022-11-10T05:30:44;25.40;;;3.47;;
41709;SDS011;59402;48.396;-4.472;2022-11-10T05:34:20;28.38;;;3.78;;
41709;SDS011;59402;48.396;-4.472;2022-11-10T05:37:56;20.20;;;2.92;;
41709;SDS011;59402;48.396;-4.472;2022-11-10T05:41:33;23.67;;;3.40;;
41709;SDS011;59402;48.396;-4.472;2022-11-10T05:45:10;28.13;;;2.97;;
41709;SDS011;59402;48.396;-4.472;2022-11-10T05:52:22;29.88;;;3.17;;
41709;SDS011;59402;48.396;-4.472;2022-11-10T05:55:59;28.80;;;3.60;;
41709;SDS011;59402;48.396;-4.472;2022-11-10T05:59:35;29.67;;;3.70;;
41709;SDS011;59402;48.396;-4.472;2022-11-10T06:03:13;27.50;;;3.90;;
41709;SDS011;59402;48.396;-4.472;2022-11-10T06:06:50;22.63;;;3.10;;
41709;SDS011;59402;48.396;-4.472;2022-11-10T06:10:26;15.35;;;2.53;;
41709;SDS011;59402;48.396;-4.472;2022-11-10T06:14:03;22.02;;;3.38;;
41709;SDS011;59402;48.396;-4.472;2022-11-10T06:17:41;23.67;;;3.60;;
41709;SDS011;59402;48.396;-4.472;2022-11-10T06:21:17;26.15;;;3.53;;
41709;SDS011;59402;48.396;-4.472;2022-11-10T06:24:53;21.92;;;3.25;;
41709;SDS011;59402;48.396;-4.472;2022-11-10T06:28:29;17.17;;;2.80;;
41709;SDS011;59402;48.396;-4.472;2022-11-10T06:32:06;23.02;;;3.60;;
41709;SDS011;59402;48.396;-4.472;2022-11-10T06:35:43;27.50;;;3.13;;
41709;SDS011;59402;48.396;-4.472;2022-11-10T06:39:21;30.50;;;3.67;;
41709;SDS011;59402;48.396;-4.472;2022-11-10T06:42:58;29.38;;;4.22;;
41709;SDS011;59402;48.396;-4.472;2022-11-10T06:46:34;30.38;;;3.65;;
41709;SDS011;59402;48.396;-4.472;2022-11-10T06:50:12;36.92;;;3.80;;
41709;SDS011;59402;48.396;-4.472;2022-11-10T06:53:49;23.30;;;3.40;;
41709;SDS011;59402;48.396;-4.472;2022-11-10T06:57:25;25.33;;;3.90;;
41709;SDS011;59402;48.396;-4.472;2022-11-10T07:01:02;35.00;;;4.38;;
41709;SDS011;59402;48.396;-4.472;2022-11-10T07:04:38;33.53;;;3.95;;
41709;SDS011;59402;48.396;-4.472;2022-11-10T07:08:16;41.42;;;4.15;;
41709;SDS011;59402;48.396;-4.472;2022-11-10T07:11:53;37.92;;;4.60;;
41709;SDS011;59402;48.396;-4.472;2022-11-10T07:15:29;34.22;;;4.18;;
41709;SDS011;59402;48.396;-4.472;2022-11-10T07:19:06;28.70;;;3.83;;
41709;SDS011;59402;48.396;-4.472;2022-11-10T07:26:19;36.83;;;5.20;;
41709;SDS011;59402;48.396;-4.472;2022-11-10T07:29:55;31.45;;;4.47;;
41709;SDS011;59402;48.396;-4.472;2022-11-10T07:33:31;33.55;;;4.55;;
41709;SDS011;59402;48.396;-4.472;2022-11-10T07:37:08;34.00;;;4.22;;
41709;SDS011;59402;48.396;-4.472;2022-11-10T07:40:48;23.85;;;3.63;;
41709;SDS011;59402;48.396;-4.472;2022-11-10T07:44:25;23.05;;;2.65;;
41709;SDS011;59402;48.396;-4.472;2022-11-10T07:48:03;25.50;;;4.10;;
41709;SDS011;59402;48.396;-4.472;2022-11-10T07:51:43;30.92;;;4.40;;
41709;SDS011;59402;48.396;-4.472;2022-11-10T07:55:20;28.48;;;4.18;;
41709;SDS011;59402;48.396;-4.472;2022-11-10T07:58:56;29.45;;;4.38;;
41709;SDS011;59402;48.396;-4.472;2022-11-10T08:06:10;23.92;;;4.03;;
41709;SDS011;59402;48.396;-4.472;2022-11-10T08:09:46;33.97;;;4.15;;
41709;SDS011;59402;48.396;-4.472;2022-11-10T08:13:24;29.73;;;3.80;;
41709;SDS011;59402;48.396;-4.472;2022-11-10T08:17:00;19.25;;;3.90;;
41709;SDS011;59402;48.396;-4.472;2022-11-10T08:20:43;25.02;;;4.28;;
41709;SDS011;59402;48.396;-4.472;2022-11-10T08:24:19;35.20;;;5.82;;
41709;SDS011;59402;48.396;-4.472;2022-11-10T08:28:00;35.50;;;5.22;;
41709;SDS011;59402;48.396;-4.472;2022-11-10T08:31:37;41.33;;;5.18;;
41709;SDS011;59402;48.396;-4.472;2022-11-10T08:35:13;22.35;;;3.10;;
41709;SDS011;59402;48.396;-4.472;2022-11-10T08:38:50;29.45;;;3.88;;
41709;SDS011;59402;48.396;-4.472;2022-11-10T08:42:27;24.23;;;3.13;;
41709;SDS011;59402;48.396;-4.472;2022-11-10T08:49:39;22.10;;;3.15;;
41709;SDS011;59402;48.396;-4.472;2022-11-10T08:53:17;17.35;;;3.40;;
41709;SDS011;59402;48.396;-4.472;2022-11-10T08:56:53;24.38;;;3.00;;
41709;SDS011;59402;48.396;-4.472;2022-11-10T09:00:31;19.33;;;3.28;;
41709;SDS011;59402;48.396;-4.472;2022-11-10T09:04:07;23.05;;;3.30;;
41709;SDS011;59402;48.396;-4.472;2022-11-10T09:07:44;27.13;;;2.90;;
41709;SDS011;59402;48.396;-4.472;2022-11-10T09:11:21;21.05;;;2.83;;
41709;SDS011;59402;48.396;-4.472;2022-11-10T09:18:34;21.25;;;3.35;;
41709;SDS011;59402;48.396;-4.472;2022-11-10T09:22:11;24.58;;;3.42;;
41709;SDS011;59402;48.396;-4.472;2022-11-10T09:25:53;27.70;;;3.72;;
41709;SDS011;59402;48.396;-4.472;2022-11-10T09:29:30;21.45;;;3.33;;
41709;SDS011;59402;48.396;-4.472;2022-11-10T09:33:07;16.13;;;2.53;;
41709;SDS011;59402;48.396;-4.472;2022-11-10T09:36:44;19.90;;;3.40;;
41709;SDS011;59402;48.396;-4.472;2022-11-10T09:40:37;17.90;;;2.85;;
41709;SDS011;59402;48.396;-4.472;2022-11-10T09:44:26;22.90;;;3.92;;
41709;SDS011;59402;48.396;-4.472;2022-11-10T09:48:21;17.77;;;3.53;;
41709;SDS011;59402;48.396;-4.472;2022-11-10T09:52:06;17.77;;;2.75;;
41709;SDS011;59402;48.396;-4.472;2022-11-10T09:55:48;14.40;;;2.60;;
41709;SDS011;59402;48.396;-4.472;2022-11-10T09:59:26;11.95;;;1.83;;
41709;SDS011;59402;48.396;-4.472;2022-11-10T10:03:04;13.63;;;2.58;;
41709;SDS011;59402;48.396;-4.472;2022-11-10T10:07:07;15.88;;;3.05;;
41709;SDS011;59402;48.396;-4.472;2022-11-10T10:10:50;17.98;;;2.70;;
41709;SDS011;59402;48.396;-4.472;2022-11-10T10:26:15;11.70;;;1.83;;
41709;SDS011;59402;48.396;-4.472;2022-11-10T10:29:55;19.38;;;2.40;;
41709;SDS011;59402;48.396;-4.472;2022-11-10T10:33:31;15.43;;;1.88;;
41709;SDS011;59402;48.396;-4.472;2022-11-10T10:37:21;14.65;;;2.28;;
41709;SDS011;59402;48.396;-4.472;2022-11-10T10:41:24;17.48;;;2.35;;
41709;SDS011;59402;48.396;-4.472;2022-11-10T10:45:23;12.20;;;1.80;;
41709;SDS011;59402;48.396;-4.472;2022-11-10T10:49:07;15.83;;;2.03;;
41709;SDS011;59402;48.396;-4.472;2022-11-10T10:53:06;17.13;;;2.22;;
41709;SDS011;59402;48.396;-4.472;2022-11-10T10:56:43;11.07;;;1.67;;
41709;SDS011;59402;48.396;-4.472;2022-11-10T11:00:31;7.32;;;1.30;;
41709;SDS011;59402;48.396;-4.472;2022-11-10T11:04:34;11.00;;;1.70;;
41709;SDS011;59402;48.396;-4.472;2022-11-10T11:08:16;8.90;;;1.45;;
41709;SDS011;59402;48.396;-4.472;2022-11-10T11:12:03;15.98;;;1.65;;
41709;SDS011;59402;48.396;-4.472;2022-11-10T11:16:00;11.40;;;1.50;;
41709;SDS011;59402;48.396;-4.472;2022-11-10T11:19:38;10.43;;;1.50;;
41709;SDS011;59402;48.396;-4.472;2022-11-10T11:27:19;9.80;;;1.90;;
41709;SDS011;59402;48.396;-4.472;2022-11-10T11:47:08;13.43;;;1.83;;
41709;SDS011;59402;48.396;-4.472;2022-11-10T11:51:09;12.15;;;1.67;;
41709;SDS011;59402;48.396;-4.472;2022-11-10T11:58:43;14.35;;;2.20;;
41709;SDS011;59402;48.396;-4.472;2022-11-10T12:06:25;11.80;;;1.75;;
41709;SDS011;59402;48.396;-4.472;2022-11-10T12:10:24;12.82;;;1.98;;
41709;SDS011;59402;48.396;-4.472;2022-11-10T12:18:29;15.95;;;2.25;;
41709;SDS011;59402;48.396;-4.472;2022-11-10T12:30:26;14.50;;;2.17;;
41709;SDS011;59402;48.396;-4.472;2022-11-10T12:38:02;13.45;;;2.05;;
41709;SDS011;59402;48.396;-4.472;2022-11-10T12:41:45;10.02;;;1.73;;
41709;SDS011;59402;48.396;-4.472;2022-11-10T12:45:58;11.35;;;1.52;;
41709;SDS011;59402;48.396;-4.472;2022-11-10T12:49:28;13.82;;;2.00;;
41709;SDS011;59402;48.396;-4.472;2022-11-10T12:53:23;18.25;;;1.83;;
41709;SDS011;59402;48.396;-4.472;2022-11-10T12:57:03;18.63;;;2.13;;
41709;SDS011;59402;48.396;-4.472;2022-11-10T13:04:40;18.70;;;2.58;;
41709;SDS011;59402;48.396;-4.472;2022-11-10T13:08:25;11.90;;;1.45;;
41709;SDS011;59402;48.396;-4.472;2022-11-10T13:12:20;11.50;;;1.70;;
41709;SDS011;59402;48.396;-4.472;2022-11-10T13:15:58;12.38;;;1.83;;
41709;SDS011;59402;48.396;-4.472;2022-11-10T13:23:28;7.65;;;1.00;;
41709;SDS011;59402;48.396;-4.472;2022-11-10T13:27:13;11.68;;;1.40;;
41709;SDS011;59402;48.396;-4.472;2022-11-10T13:39:24;5.78;;;0.85;;
41709;SDS011;59402;48.396;-4.472;2022-11-10T13:46:47;9.48;;;1.42;;
41709;SDS011;59402;48.396;-4.472;2022-11-10T13:58:18;4.78;;;1.13;;
41709;SDS011;59402;48.396;-4.472;2022-11-10T14:10:34;6.35;;;1.00;;
41709;SDS011;59402;48.396;-4.472;2022-11-10T14:14:26;7.30;;;1.02;;
41709;SDS011;59402;48.396;-4.472;2022-11-10T14:18:24;6.75;;;1.00;;
41709;SDS011;59402;48.396;-4.472;2022-11-10T14:22:13;4.97;;;0.50;;
41709;SDS011;59402;48.396;-4.472;2022-11-10T14:26:00;6.05;;;1.10;;
41709;SDS011;59402;48.396;-4.472;2022-11-10T14:29:40;6.65;;;0.93;;
41709;SDS011;59402;48.396;-4.472;2022-11-10T14:33:17;4.28;;;0.80;;
41709;SDS011;59402;48.396;-4.472;2022-11-10T14:36:58;6.82;;;0.70;;
41709;SDS011;59402;48.396;-4.472;2022-11-10T14:40:40;6.80;;;1.80;;
41709;SDS011;59402;48.396;-4.472;2022-11-10T14:44:21;7.75;;;1.70;;
41709;SDS011;59402;48.396;-4.472;2022-11-10T14:48:01;3.83;;;0.93;;
41709;SDS011;59402;48.396;-4.472;2022-11-10T14:51:39;6.13;;;1.00;;
41709;SDS011;59402;48.396;-4.472;2022-11-10T14:55:17;7.45;;;1.75;;
41709;SDS011;59402;48.396;-4.472;2022-11-10T14:59:00;9.25;;;1.85;;
41709;SDS011;59402;48.396;-4.472;2022-11-10T15:02:37;6.35;;;1.10;;
41709;SDS011;59402;48.396;-4.472;2022-11-10T15:06:17;8.30;;;1.48;;
41709;SDS011;59402;48.396;-4.472;2022-11-10T15:10:03;5.03;;;1.05;;
41709;SDS011;59402;48.396;-4.472;2022-11-10T15:13:40;6.30;;;0.98;;
41709;SDS011;59402;48.396;-4.472;2022-11-10T15:17:16;6.90;;;1.23;;
41709;SDS011;59402;48.396;-4.472;2022-11-10T15:21:10;7.85;;;1.10;;
41709;SDS011;59402;48.396;-4.472;2022-11-10T15:25:07;7.30;;;1.20;;
41709;SDS011;59402;48.396;-4.472;2022-11-10T15:28:46;9.07;;;1.20;;
41709;SDS011;59402;48.396;-4.472;2022-11-10T15:32:26;7.82;;;1.88;;
41709;SDS011;59402;48.396;-4.472;2022-11-10T15:36:23;8.00;;;1.00;;
41709;SDS011;59402;48.396;-4.472;2022-11-10T15:43:52;7.80;;;1.52;;
41709;SDS011;59402;48.396;-4.472;2022-11-10T15:47:29;9.30;;;1.52;;
41709;SDS011;59402;48.396;-4.472;2022-11-10T15:51:08;12.40;;;1.70;;
41709;SDS011;59402;48.396;-4.472;2022-11-10T15:54:48;13.40;;;3.17;;
41709;SDS011;59402;48.396;-4.472;2022-11-10T15:58:26;15.85;;;4.22;;
41709;SDS011;59402;48.396;-4.472;2022-11-10T16:02:08;11.65;;;3.75;;
41709;SDS011;59402;48.396;-4.472;2022-11-10T16:05:46;17.30;;;3.15;;
41709;SDS011;59402;48.396;-4.472;2022-11-10T16:09:23;10.73;;;2.35;;
41709;SDS011;59402;48.396;-4.472;2022-11-10T16:13:00;9.40;;;1.90;;
41709;SDS011;59402;48.396;-4.472;2022-11-10T16:16:37;15.20;;;2.80;;
41709;SDS011;59402;48.396;-4.472;2022-11-10T16:20:14;10.70;;;2.00;;
41709;SDS011;59402;48.396;-4.472;2022-11-10T16:23:54;9.32;;;2.65;;
41709;SDS011;59402;48.396;-4.472;2022-11-10T16:27:30;9.85;;;2.08;;
41709;SDS011;59402;48.396;-4.472;2022-11-10T16:31:12;11.43;;;2.05;;
41709;SDS011;59402;48.396;-4.472;2022-11-10T16:34:49;14.25;;;2.90;;
41709;SDS011;59402;48.396;-4.472;2022-11-10T16:38:27;11.57;;;2.28;;
41709;SDS011;59402;48.396;-4.472;2022-11-10T16:42:05;8.63;;;2.38;;
41709;SDS011;59402;48.396;-4.472;2022-11-10T16:45:42;13.00;;;4.05;;
41709;SDS011;59402;48.396;-4.472;2022-11-10T16:49:24;13.48;;;3.58;;
41709;SDS011;59402;48.396;-4.472;2022-11-10T16:53:21;10.55;;;2.40;;
41709;SDS011;59402;48.396;-4.472;2022-11-10T16:56:58;15.85;;;2.80;;
41709;SDS011;59402;48.396;-4.472;2022-11-10T17:00:35;12.07;;;2.17;;
41709;SDS011;59402;48.396;-4.472;2022-11-10T17:04:12;18.60;;;2.95;;
41709;SDS011;59402;48.396;-4.472;2022-11-10T17:07:55;16.00;;;2.53;;
41709;SDS011;59402;48.396;-4.472;2022-11-10T17:11:33;13.77;;;2.75;;
41709;SDS011;59402;48.396;-4.472;2022-11-10T17:15:10;17.13;;;3.10;;
41709;SDS011;59402;48.396;-4.472;2022-11-10T17:18:59;12.07;;;2.00;;
41709;SDS011;59402;48.396;-4.472;2022-11-10T17:22:36;14.68;;;2.47;;
41709;SDS011;59402;48.396;-4.472;2022-11-10T17:26:13;13.10;;;2.05;;
41709;SDS011;59402;48.396;-4.472;2022-11-10T17:29:51;13.77;;;2.42;;
41709;SDS011;59402;48.396;-4.472;2022-11-10T17:33:28;14.10;;;2.30;;
41709;SDS011;59402;48.396;-4.472;2022-11-10T17:37:05;14.60;;;3.97;;
41709;SDS011;59402;48.396;-4.472;2022-11-10T17:40:42;15.43;;;3.58;;
41709;SDS011;59402;48.396;-4.472;2022-11-10T17:48:00;16.75;;;2.65;;
41709;SDS011;59402;48.396;-4.472;2022-11-10T17:51:38;12.88;;;3.42;;
41709;SDS011;59402;48.396;-4.472;2022-11-10T18:02:27;24.60;;;4.90;;
41709;SDS011;59402;48.396;-4.472;2022-11-10T18:06:05;13.73;;;3.13;;
41709;SDS011;59402;48.396;-4.472;2022-11-10T18:09:41;17.42;;;3.63;;
41709;SDS011;59402;48.396;-4.472;2022-11-10T18:13:18;13.85;;;2.90;;
41709;SDS011;59402;48.396;-4.472;2022-11-10T18:16:55;15.57;;;3.60;;
41709;SDS011;59402;48.396;-4.472;2022-11-10T18:20:31;16.55;;;3.55;;
41709;SDS011;59402;48.396;-4.472;2022-11-10T18:24:07;20.55;;;2.75;;
41709;SDS011;59402;48.396;-4.472;2022-11-10T18:27:44;14.02;;;2.72;;
41709;SDS011;59402;48.396;-4.472;2022-11-10T18:31:22;16.08;;;3.17;;
41709;SDS011;59402;48.396;-4.472;2022-11-10T18:38:35;24.50;;;4.22;;
41709;SDS011;59402;48.396;-4.472;2022-11-10T18:42:11;16.38;;;2.83;;
41709;SDS011;59402;48.396;-4.472;2022-11-10T18:45:51;32.03;;;11.40;;
41709;SDS011;59402;48.396;-4.472;2022-11-10T18:49:28;19.20;;;3.03;;
41709;SDS011;59402;48.396;-4.472;2022-11-10T18:56:41;21.90;;;4.05;;
41709;SDS011;59402;48.396;-4.472;2022-11-10T19:00:18;17.20;;;6.03;;
41709;SDS011;59402;48.396;-4.472;2022-11-10T19:07:31;29.38;;;6.35;;
41709;SDS011;59402;48.396;-4.472;2022-11-10T19:11:09;20.23;;;6.72;;
41709;SDS011;59402;48.396;-4.472;2022-11-10T19:14:47;20.23;;;7.43;;
41709;SDS011;59402;48.396;-4.472;2022-11-10T19:18:23;31.38;;;12.82;;
41709;SDS011;59402;48.396;-4.472;2022-11-10T19:22:01;20.33;;;5.05;;
41709;SDS011;59402;48.396;-4.472;2022-11-10T19:29:16;17.40;;;5.18;;
41709;SDS011;59402;48.396;-4.472;2022-11-10T19:32:52;21.00;;;6.10;;
41709;SDS011;59402;48.396;-4.472;2022-11-10T19:36:30;19.05;;;5.13;;
41709;SDS011;59402;48.396;-4.472;2022-11-10T19:40:06;22.83;;;3.97;;
41709;SDS011;59402;48.396;-4.472;2022-11-10T19:43:48;19.83;;;8.55;;
41709;SDS011;59402;48.396;-4.472;2022-11-10T19:51:01;22.52;;;4.60;;
41709;SDS011;59402;48.396;-4.472;2022-11-10T19:54:38;19.95;;;4.28;;
41709;SDS011;59402;48.396;-4.472;2022-11-10T19:58:15;17.55;;;5.20;;
41709;SDS011;59402;48.396;-4.472;2022-11-10T20:01:52;29.02;;;11.57;;
41709;SDS011;59402;48.396;-4.472;2022-11-10T20:05:29;34.40;;;12.95;;
41709;SDS011;59402;48.396;-4.472;2022-11-10T20:09:05;26.73;;;4.90;;
41709;SDS011;59402;48.396;-4.472;2022-11-10T20:12:43;28.05;;;7.47;;
41709;SDS011;59402;48.396;-4.472;2022-11-10T20:19:55;25.48;;;5.82;;
41709;SDS011;59402;48.396;-4.472;2022-11-10T20:23:32;21.45;;;4.32;;
41709;SDS011;59402;48.396;-4.472;2022-11-10T20:27:10;22.60;;;6.45;;
41709;SDS011;59402;48.396;-4.472;2022-11-10T20:30:48;27.90;;;6.93;;
41709;SDS011;59402;48.396;-4.472;2022-11-10T20:38:01;24.15;;;5.97;;
41709;SDS011;59402;48.396;-4.472;2022-11-10T20:41:39;25.30;;;4.07;;
41709;SDS011;59402;48.396;-4.472;2022-11-10T20:45:16;24.35;;;6.95;;
41709;SDS011;59402;48.396;-4.472;2022-11-10T20:48:57;25.70;;;6.07;;
41709;SDS011;59402;48.396;-4.472;2022-11-10T20:56:12;27.67;;;3.83;;
41709;SDS011;59402;48.396;-4.472;2022-11-10T20:59:49;18.55;;;4.53;;
41709;SDS011;59402;48.396;-4.472;2022-11-10T21:03:26;20.17;;;3.95;;
41709;SDS011;59402;48.396;-4.472;2022-11-10T21:07:03;21.17;;;5.50;;
41709;SDS011;59402;48.396;-4.472;2022-11-10T21:14:35;18.73;;;4.82;;
41709;SDS011;59402;48.396;-4.472;2022-11-10T21:18:12;21.50;;;4.50;;
41709;SDS011;59402;48.396;-4.472;2022-11-10T21:21:48;23.40;;;4.00;;
41709;SDS011;59402;48.396;-4.472;2022-11-10T21:29:01;16.90;;;3.72;;
41709;SDS011;59402;48.396;-4.472;2022-11-10T21:32:39;21.73;;;5.05;;
41709;SDS011;59402;48.396;-4.472;2022-11-10T21:36:16;24.00;;;4.63;;
41709;SDS011;59402;48.396;-4.472;2022-11-10T21:39:52;23.63;;;4.32;;
41709;SDS011;59402;48.396;-4.472;2022-11-10T21:43:29;24.77;;;3.20;;
41709;SDS011;59402;48.396;-4.472;2022-11-10T21:47:07;16.45;;;3.40;;
41709;SDS011;59402;48.396;-4.472;2022-11-10T21:50:44;19.27;;;3.83;;
41709;SDS011;59402;48.396;-4.472;2022-11-10T21:54:20;16.75;;;3.60;;
41709;SDS011;59402;48.396;-4.472;2022-11-10T21:57:57;18.67;;;3.35;;
41709;SDS011;59402;48.396;-4.472;2022-11-10T22:01:33;16.05;;;3.25;;
41709;SDS011;59402;48.396;-4.472;2022-11-10T22:05:10;18.10;;;3.30;;
41709;SDS011;59402;48.396;-4.472;2022-11-10T22:08:47;19.23;;;3.00;;
41709;SDS011;59402;48.396;-4.472;2022-11-10T22:12:43;16.67;;;2.90;;
41709;SDS011;59402;48.396;-4.472;2022-11-10T22:16:45;18.92;;;2.75;;
41709;SDS011;59402;48.396;-4.472;2022-11-10T22:20:41;16.40;;;2.85;;
41709;SDS011;59402;48.396;-4.472;2022-11-10T22:24:18;15.55;;;2.78;;
41709;SDS011;59402;48.396;-4.472;2022-11-10T22:27:54;19.55;;;2.75;;
41709;SDS011;59402;48.396;-4.472;2022-11-10T22:31:31;16.75;;;3.45;;
41709;SDS011;59402;48.396;-4.472;2022-11-10T22:35:08;16.85;;;2.70;;
41709;SDS011;59402;48.396;-4.472;2022-11-10T22:38:46;13.40;;;2.63;;
41709;SDS011;59402;48.396;-4.472;2022-11-10T22:42:41;18.27;;;3.20;;
41709;SDS011;59402;48.396;-4.472;2022-11-10T22:46:37;21.73;;;3.53;;
41709;SDS011;59402;48.396;-4.472;2022-11-10T22:50:34;13.73;;;2.78;;
41709;SDS011;59402;48.396;-4.472;2022-11-10T22:54:12;21.98;;;3.13;;
41709;SDS011;59402;48.396;-4.472;2022-11-10T22:57:50;18.98;;;2.88;;
41709;SDS011;59402;48.396;-4.472;2022-11-10T23:01:27;13.15;;;2.20;;
41709;SDS011;59402;48.396;-4.472;2022-11-10T23:05:05;14.88;;;2.30;;
41709;SDS011;59402;48.396;-4.472;2022-11-10T23:08:43;20.40;;;2.75;;
41709;SDS011;59402;48.396;-4.472;2022-11-10T23:12:20;22.05;;;3.15;;
41709;SDS011;59402;48.396;-4.472;2022-11-10T23:16:01;17.17;;;2.97;;
41709;SDS011;59402;48.396;-4.472;2022-11-10T23:19:37;12.70;;;2.83;;
41709;SDS011;59402;48.396;-4.472;2022-11-10T23:23:14;16.35;;;2.78;;
41709;SDS011;59402;48.396;-4.472;2022-11-10T23:26:50;15.93;;;2.83;;
41709;SDS011;59402;48.396;-4.472;2022-11-10T23:30:27;16.83;;;2.97;;
41709;SDS011;59402;48.396;-4.472;2022-11-10T23:34:06;16.55;;;2.92;;
41709;SDS011;59402;48.396;-4.472;2022-11-10T23:41:20;15.75;;;2.97;;
41709;SDS011;59402;48.396;-4.472;2022-11-10T23:44:57;16.15;;;2.70;;
41709;SDS011;59402;48.396;-4.472;2022-11-10T23:48:34;15.38;;;2.90;;
41709;SDS011;59402;48.396;-4.472;2022-11-10T23:52:11;16.88;;;3.28;;
41709;SDS011;59402;48.396;-4.472;2022-11-10T23:55:54;18.80;;;2.70;;
41709;SDS011;59402;48.396;-4.472;2022-11-10T23:59:30;14.75;;;2.33;;
